Skip Navigation Links
NOAA logo - Click to go to the NOAA homepage
NOAA's National Weather Service
Alaska Aviation Weather Unit
  NWS logo - Click to go to the NWS homepage
Left Navbar Graphic     23 AKDT = 07 GMT

   
NOAA is celebrating 200 years of science, service, and stewardship. Visit the NOAA 200th celebration Web site to learn more.
USA.gov is the U.S. Government's official Web portal to all Federal, state and local government Web resources and services.
Facebook
NWS on Facebook

Important Change Regarding the AAWU Web Presence

 

Over the last several months, the AAWU has been working to navigate its webpages to a nationally supported server. Security, as well as other needs, have necessitated the change.  In the process, we have made an effort to enhance the functionality of our website, as well as some of our products. As of June 20, 2017, aawu.arh.noaa.gov will be discontinued. The new AAWU web address is weather.gov/aawu. It is now live and will run in-parallel with the old site until it is discontinued. Please send any feedback or questions regarding the new webpages to nws.ar.aawu.webauthors@noaa.gov.  Thank you for your patience during this time of transition.
AAWU Home :: Display TAF Add Bookmark
METAR PALG 240156Z AUTO 11005KT 8SM BKN033 OVC044 07/04 A2982 RMK AO2
     SLP298 P0001 PWINO FZRANO TSNO RVRNO=

METAR PALG 240256Z AUTO 11004KT 10SM FEW036 SCT043 OVC055 09/04 A2979
     RMK AO2 SLP298 P0999 61000 57024 PWINO FZRANO TSNO RVRNO=

METAR PALG 240356Z AUTO VRB03KT 10SM OVC050 08/04 A2976 RMK AO2 SLP298
     P0001 PWINO FZRANO TSNO RVRNO=

METAR PALG 240556Z AUTO VRB06KT 10SM FEW030 BKN038 OVC049 07/04 A2972
     RMK AO2 SLP297 P1001 63002 10100 20070 57024 PWINO FZRANO
     TSNO RVRNO=

SPECI PALG 240612Z AUTO 12005KT 10SM BKN028 BKN040 OVC048 06/04
 A2972 RMK AO2 P0001 PWINO=

SPECI PALG 240633Z AUTO VRB05KT 10SM FEW026 BKN039 OVC055 06/04 A2971
     RMK AO2 P0001 PWINO=

SPECI PALG 240644Z AUTO 10005KT 10SM BKN027 BKN034 OVC050 06/05 A2972
     RMK AO2 P0002 PWINO=

METAR PALG 240656Z AUTO 09005KT 10SM BKN027 BKN040 OVC055 06/05 A2971
     RMK AO2 SLP297 P1000 PWINO FZRANO TSNO RVRNO=


NOAA's National Weather Service
Alaska Aviation Weather Unit
6930 Sand Lake Road
Anchorage, AK 99502-1845
Disclaimer
Credits
Glossary
Privacy Policy
About Us
Career Opportunities
Contact AAWU Internet Services Site last modified: April, 17th 2012